createdAt,value
2022-09-13T00:29:30.689Z,0
2022-09-13T00:30:10.994Z,0
2022-09-13T00:30:51.618Z,0
2022-09-13T00:36:15.562Z,0
2022-09-13T00:36:56.057Z,0
2022-09-13T00:37:36.573Z,0
2022-09-13T00:38:17.124Z,0
2022-09-13T00:38:57.624Z,0
2022-09-13T00:39:38.293Z,0
2022-09-13T00:40:18.914Z,0
2022-09-13T00:40:59.239Z,0
2022-09-13T00:41:39.839Z,0
2022-09-13T00:42:20.238Z,0
2022-09-13T00:46:14.497Z,0
2022-09-13T00:46:55.211Z,0
2022-09-13T00:47:35.771Z,0
2022-09-13T00:52:19.224Z,0
2022-09-13T00:52:59.717Z,0
2022-09-13T00:53:40.245Z,0
2022-09-13T00:54:20.747Z,0
2022-09-13T00:55:01.251Z,0
2022-09-13T00:55:41.721Z,0
2022-09-13T00:56:22.214Z,0
2022-09-13T00:57:02.744Z,0
2022-09-13T00:57:43.209Z,0
2022-09-13T00:58:23.706Z,0
2022-09-13T01:05:49.345Z,0
2022-09-13T01:06:29.806Z,0
2022-09-13T01:07:10.421Z,0
2022-09-13T01:07:50.881Z,0
2022-09-13T01:08:31.359Z,0
2022-09-13T01:09:11.899Z,0
2022-09-13T01:09:52.512Z,0
2022-09-13T01:10:32.982Z,0
2022-09-13T01:11:13.445Z,0
2022-09-13T01:11:53.964Z,0
2022-09-13T01:19:19.545Z,0
2022-09-13T01:19:59.983Z,0
2022-09-13T01:20:40.523Z,0
2022-09-13T01:21:21.030Z,0
2022-09-13T01:22:01.561Z,0
2022-09-13T01:22:42.131Z,0
2022-09-13T01:23:22.580Z,0
2022-09-13T01:24:03.120Z,0
2022-09-13T01:24:43.618Z,0
2022-09-13T01:32:09.540Z,0
2022-09-13T01:32:50.158Z,0
2022-09-13T01:33:30.541Z,0
2022-09-13T01:34:11.047Z,0
2022-09-13T01:34:51.572Z,0
2022-09-13T01:35:32.008Z,0
2022-09-13T01:36:12.523Z,0
2022-09-13T01:36:53.023Z,0
2022-09-13T01:37:33.548Z,0
2022-09-13T01:38:14.058Z,0
2022-09-13T01:45:00.022Z,0
2022-09-13T01:45:40.538Z,0
2022-09-13T01:46:20.950Z,0
2022-09-13T01:47:01.514Z,0
2022-09-13T01:47:42.009Z,0
2022-09-13T01:48:22.601Z,0
2022-09-13T01:49:03.103Z,0
2022-09-13T01:49:43.519Z,0
2022-09-13T01:50:24.041Z,0
2022-09-13T01:57:09.129Z,0
2022-09-13T01:57:49.678Z,0
2022-09-13T01:58:30.200Z,0
2022-09-13T01:59:10.686Z,0
2022-09-13T01:59:51.233Z,0
2022-09-13T02:00:31.682Z,0
2022-09-13T02:01:12.296Z,0
2022-09-13T02:01:52.721Z,0
2022-09-13T02:02:33.197Z,0
2022-09-13T02:03:13.732Z,0
2022-09-13T02:10:39.315Z,0
2022-09-13T02:11:19.784Z,0
2022-09-13T02:12:00.319Z,0
2022-09-13T02:12:40.831Z,0
2022-09-13T02:13:21.352Z,0
2022-09-13T02:14:01.853Z,0
2022-09-13T02:14:42.373Z,0
2022-09-13T02:15:22.883Z,0
2022-09-13T02:16:03.445Z,0
2022-09-13T02:16:43.883Z,0
2022-09-13T02:26:42.850Z,0
2022-09-13T02:27:23.360Z,0
2022-09-13T02:28:03.870Z,0
2022-09-13T02:33:27.779Z,0
2022-09-13T02:34:08.335Z,0
2022-09-13T02:34:48.811Z,0
2022-09-13T02:35:29.250Z,0
2022-09-13T02:36:09.805Z,0
2022-09-13T02:37:30.798Z,0
2022-09-13T02:38:11.276Z,0
2022-09-13T02:38:51.761Z,0
2022-09-13T02:39:32.258Z,0
2022-09-13T02:46:57.728Z,0
2022-09-13T02:47:38.367Z,0
2022-09-13T02:48:18.980Z,0
2022-09-13T02:48:59.331Z,0
2022-09-13T02:49:39.813Z,0
2022-09-13T02:50:20.387Z,0
2022-09-13T02:51:00.828Z,0
2022-09-13T02:51:41.310Z,0
2022-09-13T02:52:21.804Z,0
2022-09-13T02:53:02.362Z,0
2022-09-13T02:59:07.607Z,0
2022-09-13T02:59:48.133Z,0
2022-09-13T03:00:28.615Z,0
2022-09-13T03:01:09.219Z,0
2022-09-13T03:01:49.676Z,0
2022-09-13T03:02:30.186Z,0
2022-09-13T03:03:11.352Z,0
2022-09-13T03:03:51.344Z,0
2022-09-13T03:07:17.412Z,0
2022-09-13T03:08:39.576Z,0
2022-09-13T03:09:20.065Z,0
2022-09-13T03:10:01.003Z,0
2022-09-13T03:10:41.464Z,0
2022-09-13T03:11:22.425Z,0
2022-09-13T03:15:17.304Z,0
2022-09-13T03:15:57.744Z,0
2022-09-13T03:16:38.381Z,0
2022-09-13T03:20:42.151Z,0
2022-09-13T03:21:22.780Z,0
2022-09-13T03:22:03.184Z,0
2022-09-13T03:22:43.675Z,0
2022-09-13T03:23:24.173Z,0
2022-09-13T03:24:04.670Z,0
2022-09-13T03:24:45.131Z,0
2022-09-13T03:25:25.666Z,0
2022-09-13T03:26:06.134Z,0
2022-09-13T03:26:46.689Z,0
2022-09-13T03:34:12.261Z,0
2022-09-13T03:34:52.710Z,0
2022-09-13T03:35:33.213Z,0
2022-09-13T03:36:13.723Z,0
2022-09-13T03:36:54.223Z,0
2022-09-13T03:37:34.958Z,0
2022-09-13T03:38:15.429Z,0
2022-09-13T03:38:55.898Z,0
2022-09-13T03:39:36.452Z,0
2022-09-13T03:47:01.891Z,0
2022-09-13T03:47:42.397Z,0
2022-09-13T03:48:22.870Z,0
2022-09-13T03:49:03.389Z,0
2022-09-13T03:49:43.863Z,0
2022-09-13T03:50:24.527Z,0
2022-09-13T03:51:04.975Z,0
2022-09-13T03:51:45.454Z,0
2022-09-13T03:52:26.003Z,0
2022-09-13T04:00:31.954Z,0
2022-09-13T04:01:12.478Z,0
2022-09-13T04:01:53.016Z,0
2022-09-13T04:02:33.496Z,0
2022-09-13T04:03:13.997Z,0
2022-09-13T04:03:56.726Z,0
2022-09-13T04:04:34.926Z,0
2022-09-13T04:05:15.555Z,0
2022-09-13T04:05:56.030Z,0
2022-09-13T04:06:36.539Z,0
2022-09-13T04:12:02.333Z,0
2022-09-13T04:12:42.821Z,0
2022-09-13T04:13:23.306Z,0
2022-09-13T04:14:03.792Z,0
2022-09-13T04:14:44.330Z,0
2022-09-13T04:15:25.847Z,0
2022-09-13T04:16:06.463Z,0
2022-09-13T04:16:46.912Z,0
2022-09-13T04:23:32.268Z,0
2022-09-13T04:24:12.571Z,0
2022-09-13T04:24:53.092Z,0
2022-09-13T04:25:33.604Z,0
2022-09-13T04:26:14.094Z,0
2022-09-13T04:29:53.269Z,0
2022-09-13T04:30:33.968Z,0
2022-09-13T04:31:14.484Z,0
2022-09-13T04:35:18.041Z,0
2022-09-13T04:35:58.585Z,0
2022-09-13T04:36:39.019Z,0
2022-09-13T04:37:19.582Z,0
2022-09-13T04:38:00.085Z,0
2022-09-13T04:41:40.233Z,0
2022-09-13T04:42:20.697Z,0
2022-09-13T04:43:01.150Z,0
2022-09-13T04:47:04.049Z,0
2022-09-13T04:47:44.561Z,0
2022-09-13T04:48:25.011Z,0
2022-09-13T04:49:05.518Z,0
2022-09-13T04:49:45.943Z,0
2022-09-13T04:50:26.511Z,0
2022-09-13T04:51:07.081Z,0
2022-09-13T04:51:47.548Z,0
2022-09-13T04:52:28.009Z,0
2022-09-13T04:53:08.561Z,0
2022-09-13T05:00:34.055Z,0
2022-09-13T05:01:14.632Z,0
2022-09-13T05:01:55.154Z,0
2022-09-13T05:02:35.639Z,0
2022-09-13T05:03:16.084Z,0
2022-09-13T05:03:56.565Z,0
2022-09-13T05:04:37.126Z,0
2022-09-13T05:05:17.574Z,0
2022-09-13T05:05:58.085Z,0
2022-09-13T05:06:38.552Z,0
2022-09-13T05:14:04.216Z,0
2022-09-13T05:14:44.732Z,0
2022-09-13T05:15:25.230Z,0
2022-09-13T05:16:05.810Z,0
2022-09-13T05:16:46.305Z,0
2022-09-13T05:17:26.757Z,0
2022-09-13T05:18:07.282Z,0
2022-09-13T05:18:47.834Z,0
2022-09-13T05:19:28.313Z,0
2022-09-13T05:20:08.778Z,0
2022-09-13T05:26:54.038Z,0
2022-09-13T05:27:34.543Z,0
2022-09-13T05:28:15.145Z,0
2022-09-13T05:28:55.591Z,0
2022-09-13T05:29:36.124Z,0
2022-09-13T05:30:16.591Z,0
2022-09-13T05:30:57.192Z,0
2022-09-13T05:31:37.669Z,0
2022-09-13T05:32:18.123Z,0
2022-09-13T05:32:58.659Z,0
2022-09-13T05:40:07.708Z,0
2022-09-13T05:40:24.628Z,0
2022-09-13T05:41:05.078Z,0
2022-09-13T05:41:45.788Z,0
2022-09-13T05:42:26.467Z,0
2022-09-13T05:43:06.944Z,0
2022-09-13T05:43:47.525Z,0
2022-09-13T05:44:28.104Z,0
2022-09-13T05:45:08.528Z,0
2022-09-13T05:52:34.365Z,0
2022-09-13T05:53:14.896Z,0
2022-09-13T05:53:55.377Z,0
2022-09-13T06:32:13.301Z,5
2022-09-13T06:32:54.071Z,5
2022-09-13T06:33:34.861Z,5
2022-09-13T06:35:38.108Z,5
2022-09-13T06:36:19.144Z,5
2022-09-13T06:37:00.350Z,5
2022-09-13T06:37:40.807Z,5
2022-09-13T06:38:22.341Z,5
2022-09-13T06:43:05.415Z,10
2022-09-13T06:43:45.938Z,10
2022-09-13T06:44:26.413Z,10
2022-09-13T06:45:06.944Z,10
2022-09-13T06:48:30.277Z,15
2022-09-13T06:49:10.863Z,15
2022-09-13T06:49:51.538Z,15
2022-09-13T06:50:32.170Z,15
2022-09-13T06:51:12.807Z,15
2022-09-13T06:51:53.347Z,15
2022-09-13T06:52:34.658Z,15
2022-09-13T06:57:19.742Z,15
2022-09-13T06:58:00.563Z,15
2022-09-13T06:59:21.847Z,15
2022-09-13T07:00:02.512Z,15
2022-09-13T07:00:43.045Z,15
2022-09-13T07:01:23.781Z,15
2022-09-13T07:02:04.159Z,15
2022-09-13T07:06:49.901Z,15
2022-09-13T07:07:30.402Z,15
2022-09-13T07:08:11.043Z,15
2022-09-13T07:08:51.803Z,15
2022-09-13T07:09:32.178Z,15
2022-09-13T07:10:13.407Z,15
2022-09-13T07:10:54.197Z,15
2022-09-13T07:14:03.561Z,20
2022-09-13T07:14:45.234Z,20
2022-09-13T07:15:25.809Z,20
2022-09-13T07:18:08.122Z,20
2022-09-13T07:18:48.852Z,25
2022-09-13T07:19:29.378Z,25
2022-09-13T07:20:11.018Z,25
2022-09-13T07:20:51.447Z,25
2022-09-13T07:21:32.011Z,25
2022-09-13T07:26:58.217Z,30
2022-09-13T07:27:38.820Z,30
2022-09-13T07:28:22.196Z,30
2022-09-13T07:29:00.112Z,25
2022-09-13T07:29:40.601Z,25
2022-09-13T07:30:21.190Z,30
2022-09-13T07:31:01.724Z,30
2022-09-13T07:31:42.338Z,30
2022-09-13T07:32:22.822Z,30
2022-09-13T07:37:08.665Z,40
2022-09-13T07:37:49.226Z,40
2022-09-13T07:38:29.972Z,40
2022-09-13T07:39:14.491Z,40
2022-09-13T07:40:31.832Z,40
2022-09-13T07:41:12.308Z,40
2022-09-13T07:41:53.018Z,40
2022-09-13T07:48:05.396Z,40
2022-09-13T07:48:46.189Z,40
2022-09-13T07:49:26.843Z,40
2022-09-13T07:52:51.256Z,40
2022-09-13T07:53:33.910Z,40
2022-09-13T07:54:14.556Z,40
2022-09-13T07:58:19.690Z,40
2022-09-13T07:59:00.257Z,40
2022-09-13T07:59:40.992Z,40
2022-09-13T08:00:21.603Z,40
2022-09-13T08:01:02.122Z,40
2022-09-13T08:01:42.627Z,40
2022-09-13T08:02:23.969Z,40
2022-09-13T08:08:31.116Z,45
2022-09-13T08:09:11.569Z,45
2022-09-13T08:09:52.249Z,45
2022-09-13T08:11:13.193Z,45
2022-09-13T08:11:53.711Z,45
2022-09-13T08:12:34.443Z,45
2022-09-13T08:15:59.950Z,40
2022-09-13T08:16:40.645Z,40
2022-09-13T08:17:21.165Z,40
2022-09-13T08:18:01.688Z,45
2022-09-13T08:21:41.087Z,45
2022-09-13T08:22:21.791Z,45
2022-09-13T08:23:02.910Z,45
2022-09-13T08:26:26.514Z,55
2022-09-13T08:27:07.006Z,60
2022-09-13T08:27:47.510Z,55
2022-09-13T08:28:28.027Z,50
2022-09-13T08:29:08.648Z,55
2022-09-13T08:29:49.117Z,55
2022-09-13T08:30:29.702Z,55
2022-09-13T08:31:10.348Z,55
2022-09-13T08:37:17.150Z,60
2022-09-13T08:37:57.595Z,60
2022-09-13T08:38:38.188Z,60
2022-09-13T08:39:18.837Z,60
2022-09-13T08:40:40.580Z,60
2022-09-13T08:46:06.401Z,65
2022-09-13T08:46:46.887Z,65
2022-09-13T08:47:27.422Z,65
2022-09-13T08:48:08.008Z,65
2022-09-13T08:48:48.599Z,70
2022-09-13T08:49:29.126Z,65
2022-09-13T08:50:10.567Z,60
2022-09-13T08:56:26.135Z,60
2022-09-13T08:57:07.286Z,60
2022-09-13T08:57:47.825Z,55
2022-09-13T08:58:28.319Z,55
2022-09-13T09:02:23.742Z,55
2022-09-13T09:05:09.388Z,55
2022-09-13T09:08:24.431Z,55
2022-09-13T09:09:05.463Z,55
2022-09-13T09:09:45.648Z,55
2022-09-13T09:10:26.096Z,50
2022-09-13T09:13:08.872Z,50
2022-09-13T09:13:50.345Z,50
2022-09-13T09:14:30.759Z,50
2022-09-13T09:15:11.974Z,50
2022-09-13T09:15:53.472Z,50
2022-09-13T09:19:18.897Z,50
2022-09-13T09:19:59.501Z,50
2022-09-13T09:20:40.027Z,50
2022-09-13T09:21:20.654Z,50
2022-09-13T09:22:01.108Z,50
2022-09-13T09:22:41.837Z,50
2022-09-13T09:23:22.308Z,50
2022-09-13T09:24:02.826Z,50
2022-09-13T09:29:28.167Z,50
2022-09-13T09:30:08.646Z,50
2022-09-13T09:30:49.258Z,50
2022-09-13T09:31:29.794Z,50
2022-09-13T09:32:10.469Z,50
2022-09-13T09:32:51.418Z,50
2022-09-13T09:33:32.073Z,50
2022-09-13T09:34:12.671Z,50
2022-09-13T09:34:53.289Z,50
2022-09-13T09:39:16.074Z,55
2022-09-13T09:43:10.715Z,55
2022-09-13T09:43:51.298Z,55
2022-09-13T09:44:32.040Z,55
2022-09-13T09:47:01.707Z,55
2022-09-13T09:47:41.972Z,55
2022-09-13T09:48:22.523Z,55
2022-09-13T09:52:25.797Z,55
2022-09-13T09:53:06.433Z,55
2022-09-13T09:53:46.997Z,55
2022-09-13T09:54:27.565Z,55
2022-09-13T09:55:08.094Z,55
2022-09-13T09:55:48.654Z,55
2022-09-13T09:56:29.201Z,55
2022-09-13T09:57:09.667Z,55
2022-09-13T09:57:50.303Z,55
2022-09-13T10:04:36.212Z,55
2022-09-13T10:05:16.762Z,60
2022-09-13T10:05:57.264Z,55
2022-09-13T10:06:37.802Z,60
2022-09-13T10:07:18.355Z,55
2022-09-13T10:07:58.876Z,55
2022-09-13T10:08:39.421Z,50
2022-09-13T10:09:19.873Z,50
2022-09-13T10:10:00.417Z,45
2022-09-13T10:16:06.033Z,50
2022-09-13T10:16:46.649Z,50
2022-09-13T10:17:27.117Z,45
2022-09-13T10:18:16.905Z,45
2022-09-13T10:18:48.159Z,45
2022-09-13T10:19:28.672Z,45
2022-09-13T10:20:09.233Z,45
2022-09-13T10:20:49.746Z,45
2022-09-13T10:21:30.222Z,45
2022-09-13T10:22:10.775Z,45
2022-09-13T10:28:56.291Z,40
2022-09-13T10:29:36.942Z,40
2022-09-13T10:30:17.376Z,40
2022-09-13T10:30:57.960Z,40
2022-09-13T10:31:38.468Z,40
2022-09-13T10:32:19.007Z,40
2022-09-13T10:32:59.561Z,45
2022-09-13T10:33:40.114Z,40
2022-09-13T10:34:20.616Z,40
2022-09-13T10:41:05.808Z,45
2022-09-13T10:41:46.314Z,45
2022-09-13T10:42:26.842Z,45
2022-09-13T10:43:07.478Z,45
2022-09-13T10:43:47.956Z,45
2022-09-13T10:44:28.496Z,45
2022-09-13T10:45:09.083Z,45
2022-09-13T10:45:49.570Z,45
2022-09-13T10:46:30.119Z,45
2022-09-13T10:47:10.534Z,50
2022-09-13T10:53:55.797Z,50
2022-09-13T10:54:36.433Z,50
2022-09-13T10:55:16.887Z,50
2022-09-13T10:55:57.374Z,55
2022-09-13T10:56:37.875Z,55
2022-09-13T10:57:18.470Z,55
2022-09-13T10:57:59.031Z,50
2022-09-13T10:58:39.561Z,50
2022-09-13T10:59:20.035Z,50
2022-09-13T11:00:00.552Z,50
2022-09-13T11:05:26.441Z,50
2022-09-13T11:06:06.949Z,55
2022-09-13T11:06:47.399Z,55
2022-09-13T11:07:27.962Z,60
2022-09-13T11:08:08.420Z,60
2022-09-13T11:08:49.053Z,60
2022-09-13T11:09:29.552Z,55
2022-09-13T11:10:10.108Z,65
2022-09-13T11:10:50.599Z,60
2022-09-13T11:15:36.088Z,55
2022-09-13T11:16:16.782Z,65
2022-09-13T11:16:57.207Z,65
2022-09-13T11:17:37.693Z,55
2022-09-13T11:18:18.398Z,65
2022-09-13T11:18:59.232Z,60
2022-09-13T11:19:39.870Z,50
2022-09-13T11:20:20.461Z,50
2022-09-13T11:23:47.582Z,75
2022-09-13T11:24:31.260Z,75
2022-09-13T11:29:16.133Z,60
2022-09-13T11:29:56.884Z,65
2022-09-13T11:30:38.424Z,70
2022-09-13T11:31:18.509Z,60
2022-09-13T11:31:59.120Z,70
2022-09-13T11:32:40.835Z,70
2022-09-13T11:38:05.988Z,70
2022-09-13T11:38:47.323Z,70
2022-09-13T11:39:27.820Z,65
2022-09-13T11:40:08.518Z,70
2022-09-13T11:40:49.215Z,55
2022-09-13T11:46:56.113Z,65
2022-09-13T11:47:37.052Z,50
2022-09-13T11:48:19.755Z,50
2022-09-13T11:49:00.442Z,45
2022-09-13T11:51:48.210Z,50
2022-09-13T11:52:29.266Z,55
2022-09-13T11:53:50.536Z,50
2022-09-13T12:32:58.212Z,40
2022-09-13T12:33:34.602Z,40
2022-09-13T12:34:15.184Z,40
2022-09-13T12:37:38.068Z,40
2022-09-13T12:38:18.640Z,40
2022-09-13T12:38:59.224Z,40
2022-09-13T12:39:39.848Z,45
2022-09-13T12:40:20.538Z,45
2022-09-13T12:41:01.542Z,45
2022-09-13T12:41:42.187Z,45
2022-09-13T12:47:48.103Z,45
2022-09-13T12:48:28.668Z,45
2022-09-13T12:49:09.079Z,45
2022-09-13T12:49:49.591Z,40
2022-09-13T12:50:47.374Z,35
2022-09-13T12:51:12.634Z,35
2022-09-13T12:54:00.013Z,35
2022-09-13T12:56:38.798Z,40
2022-09-13T12:57:19.879Z,40
2022-09-13T12:58:00.828Z,40
2022-09-13T12:58:41.955Z,40
2022-09-13T12:59:23.289Z,40
2022-09-13T13:00:04.335Z,45
2022-09-13T13:00:45.479Z,45
2022-09-13T13:01:26.589Z,45
2022-09-13T13:02:07.689Z,45
2022-09-13T13:05:33.053Z,45
2022-09-13T13:06:14.077Z,45
2022-09-13T13:06:55.262Z,45
2022-09-13T13:07:36.246Z,40
2022-09-13T13:08:17.338Z,45
2022-09-13T13:14:13.840Z,40
2022-09-13T13:14:55.281Z,40
2022-09-13T13:15:36.666Z,40
2022-09-13T13:16:17.142Z,40
2022-09-13T13:16:57.714Z,40
2022-09-13T13:17:38.467Z,40
2022-09-13T13:18:18.996Z,40
2022-09-13T13:18:59.729Z,40
2022-09-13T13:19:40.321Z,40
2022-09-13T13:20:21.041Z,40
2022-09-13T13:23:46.949Z,35
2022-09-13T13:24:27.741Z,40
2022-09-13T13:25:08.268Z,40
2022-09-13T13:25:49.132Z,40
2022-09-13T13:26:30.201Z,40
2022-09-13T13:27:11.196Z,40
2022-09-13T13:29:57.302Z,45
2022-09-13T13:30:39.400Z,40
2022-09-13T13:35:26.554Z,45
2022-09-13T13:36:07.073Z,45
2022-09-13T13:36:47.670Z,45
2022-09-13T13:37:31.205Z,45
2022-09-13T13:42:08.191Z,50
2022-09-13T13:42:48.366Z,50
2022-09-13T13:43:29.840Z,45
2022-09-13T13:46:13.087Z,45
2022-09-13T13:48:13.782Z,45
2022-09-13T13:48:54.679Z,45
2022-09-13T13:49:35.263Z,50
2022-09-13T13:50:15.807Z,50
2022-09-13T13:50:56.295Z,50
2022-09-13T13:52:59.014Z,50
2022-09-13T13:53:39.554Z,50
2022-09-13T13:54:20.566Z,50
2022-09-13T13:55:01.438Z,50
2022-09-13T13:55:42.059Z,45
2022-09-13T13:56:22.735Z,40
2022-09-13T13:57:05.667Z,35
2022-09-13T14:01:49.308Z,40
2022-09-13T14:02:30.001Z,40
2022-09-13T14:03:11.097Z,35
2022-09-13T14:03:52.411Z,35
2022-09-13T14:04:32.362Z,35
2022-09-13T14:05:14.065Z,30
2022-09-13T14:09:59.061Z,30
2022-09-13T14:10:39.745Z,30
2022-09-13T14:11:20.262Z,30
2022-09-13T14:12:01.470Z,30
2022-09-13T14:12:41.962Z,30
2022-09-13T14:13:22.557Z,30
2022-09-13T14:14:03.306Z,35
2022-09-13T14:14:43.865Z,35
2022-09-13T14:20:09.306Z,35
2022-09-13T14:20:49.795Z,35
2022-09-13T14:21:30.481Z,35
2022-09-13T14:22:11.160Z,40
2022-09-13T14:22:51.718Z,40
2022-09-13T14:23:32.339Z,40
2022-09-13T14:24:12.776Z,40
2022-09-13T14:24:53.235Z,35
2022-09-13T14:25:33.870Z,35
2022-09-13T14:31:39.230Z,35
2022-09-13T14:32:19.733Z,35
2022-09-13T14:33:40.912Z,35
2022-09-13T14:34:21.558Z,35
2022-09-13T14:35:02.083Z,40
2022-09-13T14:35:42.598Z,40
2022-09-13T14:36:23.174Z,40
2022-09-13T14:37:03.784Z,40
2022-09-13T14:40:39.076Z,35
2022-09-13T14:41:20.124Z,40
2022-09-13T14:42:01.228Z,30
2022-09-13T14:42:44.384Z,30
2022-09-13T14:43:25.449Z,30
2022-09-13T14:47:31.673Z,25
2022-09-13T14:48:12.734Z,25
2022-09-13T14:52:21.954Z,20
2022-09-13T14:53:02.903Z,20
2022-09-13T14:53:43.905Z,20
2022-09-13T14:54:24.907Z,20
2022-09-13T14:55:05.843Z,20
2022-09-13T14:57:51.188Z,20
2022-09-13T15:00:45.374Z,20
2022-09-13T15:01:26.140Z,20
2022-09-13T15:02:06.837Z,20
2022-09-13T15:05:29.850Z,15
2022-09-13T15:09:05.250Z,15
2022-09-13T15:09:45.840Z,15
2022-09-13T15:10:26.321Z,15
2022-09-13T15:14:21.698Z,15
2022-09-13T15:15:02.251Z,15
2022-09-13T15:15:43.065Z,15
2022-09-13T15:19:46.339Z,10
2022-09-13T15:20:26.898Z,10
2022-09-13T15:21:07.482Z,10
2022-09-13T15:21:47.955Z,10
2022-09-13T15:22:28.417Z,10
2022-09-13T15:23:08.963Z,10
2022-09-13T15:23:49.563Z,10
2022-09-13T15:24:29.984Z,10
2022-09-13T15:25:10.523Z,10
2022-09-13T15:25:51.499Z,10
2022-09-13T15:32:03.477Z,10
2022-09-13T15:32:44.131Z,10
2022-09-13T15:33:24.699Z,10
2022-09-13T15:37:20.806Z,5
2022-09-13T15:38:02.327Z,5
2022-09-13T15:38:43.624Z,5
2022-09-13T15:39:24.843Z,5
2022-09-13T15:40:06.321Z,5
2022-09-13T15:40:47.461Z,5
2022-09-13T15:41:28.680Z,5
2022-09-13T15:44:14.878Z,5
2022-09-13T15:44:55.928Z,5
2022-09-13T15:45:36.870Z,5
2022-09-13T15:46:18.341Z,5
2022-09-13T15:46:59.358Z,5
2022-09-13T15:50:24.869Z,5
2022-09-13T15:51:05.886Z,5
2022-09-13T15:51:46.868Z,5
2022-09-13T15:52:27.971Z,5
2022-09-13T15:53:09.222Z,5
2022-09-13T15:56:35.234Z,5
2022-09-13T15:57:16.440Z,5
2022-09-13T15:57:57.582Z,5
2022-09-13T15:58:39.017Z,5
2022-09-13T16:02:45.550Z,5
2022-09-13T16:03:27.084Z,5
2022-09-13T16:04:08.220Z,5
2022-09-13T16:04:49.282Z,5
2022-09-13T16:08:14.531Z,5
2022-09-13T16:08:55.577Z,5
2022-09-13T16:09:36.494Z,5
2022-09-13T16:10:17.568Z,5
2022-09-13T16:10:58.555Z,5
2022-09-13T16:11:39.540Z,5
2022-09-13T16:16:16.549Z,0
2022-09-13T16:16:56.878Z,0
2022-09-13T16:17:37.395Z,0
2022-09-13T16:22:17.416Z,0
2022-09-13T16:22:57.818Z,0
2022-09-13T16:23:38.327Z,0
2022-09-13T16:28:22.458Z,0
2022-09-13T16:29:04.850Z,0
2022-09-13T16:29:46.034Z,0
2022-09-13T16:30:26.610Z,0
2022-09-13T16:37:12.004Z,0
2022-09-13T16:37:52.705Z,0
2022-09-13T16:38:33.251Z,0
2022-09-13T16:39:14.166Z,0
2022-09-13T16:39:54.842Z,0
2022-09-13T16:40:35.309Z,0
2022-09-13T16:41:15.846Z,0
2022-09-13T16:41:56.461Z,0
2022-09-13T16:47:21.914Z,0
2022-09-13T16:48:02.904Z,0
2022-09-13T16:48:43.464Z,0
2022-09-13T16:49:24.110Z,0
2022-09-13T16:50:04.563Z,0
2022-09-13T16:50:45.178Z,0
2022-09-13T16:51:25.762Z,0
2022-09-13T16:52:06.421Z,0
2022-09-13T16:52:46.891Z,0
2022-09-13T16:58:51.905Z,0
2022-09-13T16:59:32.376Z,0
2022-09-13T17:00:13.347Z,0
2022-09-13T17:00:54.437Z,0
2022-09-13T17:01:34.698Z,0
2022-09-13T17:02:15.211Z,0
2022-09-13T17:02:55.959Z,0
2022-09-13T17:03:37.324Z,0
2022-09-13T17:09:42.250Z,0
2022-09-13T17:10:22.759Z,0
2022-09-13T17:11:04.122Z,0
2022-09-13T17:11:44.652Z,0
2022-09-13T17:12:25.485Z,0
2022-09-13T17:13:05.831Z,0
2022-09-13T17:13:46.429Z,0
2022-09-13T17:19:52.158Z,0
2022-09-13T17:20:32.792Z,0
2022-09-13T17:21:13.282Z,0
2022-09-13T17:21:53.762Z,0
2022-09-13T17:22:34.343Z,0
2022-09-13T17:23:14.806Z,0
2022-09-13T17:23:55.266Z,0
2022-09-13T17:24:35.841Z,0
2022-09-13T17:25:16.383Z,0
2022-09-13T17:33:00.188Z,0
2022-09-13T17:33:40.697Z,0
2022-09-13T17:34:21.230Z,0
2022-09-13T17:39:04.777Z,0
2022-09-13T17:39:45.288Z,0
2022-09-13T17:40:25.790Z,0
2022-09-13T17:41:06.238Z,0
2022-09-13T17:41:46.796Z,0
2022-09-13T17:42:27.340Z,0
2022-09-13T17:43:07.818Z,0
2022-09-13T17:43:48.386Z,0
2022-09-13T17:44:28.896Z,0
2022-09-13T17:45:09.368Z,0
2022-09-13T17:52:35.281Z,0
2022-09-13T17:53:15.404Z,0
2022-09-13T17:53:55.895Z,0
2022-09-13T18:34:50.650Z,0
2022-09-13T18:35:30.951Z,0
2022-09-13T18:36:11.531Z,0
2022-09-13T18:36:51.969Z,0
2022-09-13T18:40:54.884Z,0
2022-09-13T18:41:35.463Z,0
2022-09-13T18:42:15.966Z,0
2022-09-13T18:42:56.424Z,0
2022-09-13T18:43:36.891Z,0
2022-09-13T18:44:17.364Z,0
2022-09-13T18:44:57.912Z,0
2022-09-13T18:45:38.427Z,0
2022-09-13T18:46:18.992Z,0
2022-09-13T18:46:59.599Z,0
2022-09-13T18:54:25.117Z,0
2022-09-13T18:55:05.575Z,0
2022-09-13T18:55:46.086Z,0
2022-09-13T18:56:26.569Z,0
2022-09-13T18:57:07.069Z,0
2022-09-13T18:57:47.591Z,0
2022-09-13T18:58:28.138Z,0
2022-09-13T18:59:49.295Z,0
2022-09-13T19:00:30.137Z,0
2022-09-13T19:04:15.118Z,0
2022-09-13T19:04:56.433Z,0
2022-09-13T19:05:37.465Z,0
2022-09-13T19:06:59.294Z,0
2022-09-13T19:07:40.445Z,0
2022-09-13T19:08:21.459Z,0
2022-09-13T19:09:02.513Z,0
2022-09-13T19:09:43.713Z,0
2022-09-13T19:11:19.301Z,0
2022-09-13T19:11:49.941Z,0
2022-09-13T19:12:30.902Z,0
2022-09-13T19:13:11.925Z,0
2022-09-13T19:13:53.131Z,0
2022-09-13T19:17:59.196Z,0
2022-09-13T19:18:40.226Z,0
2022-09-13T19:19:21.185Z,0
2022-09-13T19:20:02.153Z,0
2022-09-13T19:20:43.141Z,0
2022-09-13T19:24:49.195Z,0
2022-09-13T19:25:30.162Z,0
2022-09-13T19:26:11.177Z,0
2022-09-13T19:27:33.217Z,0
2022-09-13T19:31:39.720Z,0
2022-09-13T19:32:20.731Z,0
2022-09-13T19:33:01.731Z,0
2022-09-13T19:33:42.703Z,0
2022-09-13T19:44:35.060Z,0
2022-09-13T19:45:15.555Z,0
2022-09-13T19:45:56.078Z,0
2022-09-13T19:50:39.442Z,0
2022-09-13T19:51:19.947Z,0
2022-09-13T19:52:00.662Z,0
2022-09-13T19:52:40.970Z,0
2022-09-13T19:53:23.470Z,0
2022-09-13T19:54:02.073Z,0
2022-09-13T19:54:42.578Z,0
2022-09-13T19:55:23.068Z,0
2022-09-13T19:56:03.564Z,0
2022-09-13T19:56:44.118Z,0
2022-09-13T20:04:09.551Z,0
2022-09-13T20:04:50.105Z,0
2022-09-13T20:05:30.552Z,0
2022-09-13T20:06:11.055Z,0
2022-09-13T20:06:51.538Z,0
2022-09-13T20:07:32.033Z,0
2022-09-13T20:08:12.568Z,0
2022-09-13T20:08:52.960Z,0
2022-09-13T20:10:13.924Z,0
2022-09-13T20:16:19.747Z,0
2022-09-13T20:17:00.291Z,0
2022-09-13T20:17:40.722Z,0
2022-09-13T20:18:21.227Z,0
2022-09-13T20:19:01.717Z,0
2022-09-13T20:20:22.828Z,0
2022-09-13T20:21:03.288Z,0
2022-09-13T20:21:43.757Z,0
2022-09-13T20:22:24.256Z,0
2022-09-13T20:28:29.298Z,0
2022-09-13T20:29:09.777Z,0
2022-09-13T20:29:50.279Z,0
2022-09-13T20:30:30.823Z,0
2022-09-13T20:31:11.332Z,0
2022-09-13T20:31:51.858Z,0
2022-09-13T20:34:39.903Z,0
2022-09-13T20:35:28.794Z,0
2022-09-13T20:36:17.145Z,0
2022-09-13T20:37:05.941Z,0
2022-09-13T20:37:53.723Z,0
2022-09-13T20:38:43.015Z,0
2022-09-13T20:39:31.442Z,0
2022-09-13T20:40:20.309Z,0
2022-09-13T20:41:57.191Z,0
2022-09-13T20:43:34.455Z,0
2022-09-13T20:44:23.373Z,0
2022-09-13T20:45:11.635Z,0
2022-09-13T20:46:00.173Z,0
2022-09-13T20:46:48.931Z,0
2022-09-13T20:48:25.911Z,0
2022-09-13T20:49:14.850Z,0
2022-09-13T20:51:18.724Z,0
2022-09-13T20:51:59.273Z,0
2022-09-13T20:52:39.802Z,0
2022-09-13T20:53:20.271Z,0
2022-09-13T20:54:00.983Z,0
2022-09-13T20:54:41.357Z,0
2022-09-13T20:55:21.882Z,0
2022-09-13T20:56:02.396Z,0
2022-09-13T20:56:42.909Z,0
2022-09-13T21:04:49.016Z,0
2022-09-13T21:05:29.537Z,0
2022-09-13T21:06:10.182Z,0
2022-09-13T21:06:50.694Z,0
2022-09-13T21:07:31.191Z,0
2022-09-13T21:08:11.728Z,0
2022-09-13T21:08:52.314Z,0
2022-09-13T21:09:32.691Z,0
2022-09-13T21:18:19.341Z,0
2022-09-13T21:18:59.871Z,0
2022-09-13T21:19:40.310Z,0
2022-09-13T21:20:20.858Z,0
2022-09-13T21:21:01.378Z,0
2022-09-13T21:21:41.897Z,0
2022-09-13T21:22:22.309Z,0
2022-09-13T21:23:02.767Z,0
2022-09-13T21:23:43.341Z,0
2022-09-13T21:31:08.761Z,0
2022-09-13T21:31:49.176Z,0
2022-09-13T21:32:29.653Z,0
2022-09-13T21:33:10.179Z,0
2022-09-13T21:33:50.699Z,0
2022-09-13T21:34:31.134Z,0
2022-09-13T21:35:52.142Z,0
2022-09-13T21:36:32.716Z,0
2022-09-13T21:37:13.140Z,0
2022-09-13T21:44:38.537Z,0
2022-09-13T21:45:19.024Z,0
2022-09-13T21:45:59.560Z,0
2022-09-13T21:46:39.976Z,0
2022-09-13T21:47:20.509Z,0
2022-09-13T21:48:00.969Z,0
2022-09-13T21:48:41.458Z,0
2022-09-13T21:49:21.994Z,0
2022-09-13T21:50:02.412Z,0
2022-09-13T21:50:42.921Z,0
2022-09-13T21:51:23.408Z,0
2022-09-13T21:58:08.585Z,0
2022-09-13T21:58:49.054Z,0
2022-09-13T21:59:29.608Z,0
2022-09-13T22:00:10.045Z,0
2022-09-13T22:00:50.511Z,0
2022-09-13T22:01:31.100Z,0
2022-09-13T22:02:11.518Z,0
2022-09-13T22:02:52.010Z,0
2022-09-13T22:03:32.415Z,0
2022-09-13T22:04:12.914Z,0
2022-09-13T22:04:53.352Z,0
2022-09-13T22:12:18.709Z,0
2022-09-13T22:12:59.170Z,0
2022-09-13T22:13:39.648Z,0
2022-09-13T22:14:20.136Z,0
2022-09-13T22:15:00.690Z,0
2022-09-13T22:15:41.183Z,0
2022-09-13T22:16:21.751Z,0